RÉSULTATS    Les Foulées Roses contre le Cancer - Édition du 06/10/2019


Vous pouvez changer la distance ici.

Vous pouvez changer la distance ici.

Classement PDF Général Classement PDF Alphabétique /results/<span class='glyphicon glyphicon-picture'></span> Classement Temps Réel - Temps Puce

1917 participants - 942 Femmes - 975 Hommes
65 licenciés (3%) - 1852 non-licenciés (97%)

Temps moyen : 00:46:34


    Page / 77




Pos. Temps Nom - Prénom Club Dossard Catégorie km/h Temps Reel
1067 00:47:55 TARDIF Christian 357 V1M (250 / 335) 10.3 00:47:36
1066 00:47:54 DU MANOIR Beatrice 615 V1F (107 / 323) 10.4 00:47:05
1065 00:47:53 TALINE Aprikian MAIRIE D'OLIVET 2698 SEF (144 / 413) 10.9 00:44:52
1064 00:47:51 BURGOT Marie 1215 SEF (143 / 413) 10.4 00:46:55
1060 00:47:50 DEGOUZEL Gilles 849 V2M (145 / 200) 10.6 00:46:14
1061 00:47:50 MANSARD Dylan 745 ESM (19 / 21) 10.7 00:45:46
1062 00:47:50 SCHLESINGER Matthieu MAIRIE D'OLIVET 2723 SEM (272 / 339) 10.8 00:45:16
1063 00:47:50 LANSON Ludovic AMICALE ST HILAIRE SP PAOLHI 66 V1M (249 / 335) 10.5 00:46:49
1058 00:47:49 MAILLART Patrick 577 V2M (143 / 200) 10.7 00:45:55
1059 00:47:49 GUILLAUME Stephane 195 V2M (144 / 200) 10.7 00:45:52
1055 00:47:48 GIRARD Serge LABOIRATOIRES SERVIER INDUSTRI 2229 V3M (26 / 46) 10.4 00:47:12
1056 00:47:48 GODIN Vanessa 2824 SEF (141 / 413) 10.7 00:45:52
1057 00:47:48 DEGOUZEL Elsa 848 SEF (142 / 413) 10.6 00:46:12
1054 00:47:46 FERBUS Armelle 26 V1F (106 / 323) 10.4 00:46:58
1053 00:47:45 MERCIER Vincent 1113 SEM (271 / 339) 10.5 00:46:45
1052 00:47:44 LEREBOURS Elsa 761 SEF (140 / 413) 10.8 00:45:27
1048 00:47:43 ECOCHARD Florence CAF DU LOIRET 2067 V2F (54 / 133) 10.5 00:46:46
1049 00:47:43 SOUVILLE--CHASSAING Maureen 1112 ESF (10 / 26) 10.4 00:47:13
1050 00:47:43 PELLETIER Michel EPSM 2108 V2M (142 / 200) 10.6 00:46:01
1051 00:47:43 BONNEFOY Elodie CHR ORLEANS 2452 SEF (139 / 413) 10.8 00:45:25
1046 00:47:42 BISSON Daniele 1069 V1F (105 / 323) 10.8 00:45:24
1047 00:47:42 SALIN Paul 82 V4M (4 / 6) 10.4 00:47:15
1042 00:47:40 GUIAVARCH David ASTOM 2321 V1M (247 / 335) 10.8 00:45:26
1043 00:47:40 FUMOLEAU Christine LE RIRE MEDECIN 128 V2F (53 / 133) 10.4 00:47:06
1044 00:47:40 NOUMI KOMGUEM Valmy ASTOM 2312 V2M (141 / 200) 10.3 00:47:27
    Première Page / 77 Dernière